PWSweather.com
Personal Weather Stations
Station Observations
K4FB1
Clubhouse Heritage, Lakeland, FL 33812

Clubhouse HeritageLakeland, FL 33812

Lat: 27.969224, Lon: -81.897769

Elevation: 145

Station Type: Davis Vantage Pro2

http://www.ClubhouseWX.com

High Low Average
Temperature 86.1°F30.1°C 69.9°F21.1°C 74.4°F23.6°C
Dew Point 76.6°F24.8°C 67.3°F19.6°C 71.1°F21.7°C
Winds 7.0 mph 11.3 kmh Calm Calm 2.0 mph NNE3.2 kmh NNE
Wind Gusts 14.0 mph22.5 kmh -- 4.0 mph6.4 kmh
Humidity 96% 69% 90%
Pressure 30.20 in1022.7 mb 30.09 in1019.0 mb -
Precipitation 0.60 in15.2 mm - -
Hour Temp Dew Point Humidity Winds Wind Gusts Pressure Precip Precip Rate Daily Precip Total
12:00 AM 70.5°F21.4°C 67.7°F19.8°C 91% Calm Calm -- 30.11 in1019.6 mb 0.00 in0.0 mm 0.00 in0.0 mm 0.00 in0.0 mm
12:05 AM 70.4°F21.3°C 67.6°F19.8°C 91% Calm Calm -- 30.11 in1019.6 mb 0.00 in0.0 mm 0.00 in0.0 mm 0.00 in0.0 mm
12:10 AM 70.4°F21.3°C 67.6°F19.8°C 91% Calm Calm -- 30.11 in1019.6 mb 0.00 in0.0 mm 0.00 in0.0 mm 0.00 in0.0 mm
12:15 AM 70.2°F21.2°C 67.4°F19.7°C 91% Calm Calm -- 30.11 in1019.6 mb 0.00 in0.0 mm 0.00 in0.0 mm 0.00 in0.0 mm
12:20 AM 70.3°F21.3°C 67.9°F19.9°C 92% Calm Calm -- 30.11 in1019.6 mb 0.00 in0.0 mm 0.00 in0.0 mm 0.00 in0.0 mm
12:25 AM 70.2°F21.2°C 67.4°F19.7°C 91% Calm Calm -- 30.11 in1019.6 mb 0.00 in0.0 mm 0.00 in0.0 mm 0.00 in0.0 mm
12:30 AM 70.1°F21.2°C 67.3°F19.6°C 91% Calm Calm -- 30.11 in1019.6 mb 0.00 in0.0 mm 0.00 in0.0 mm 0.00 in0.0 mm
12:35 AM 70.0°F21.1°C 67.6°F19.8°C 92% Calm Calm -- 30.12 in1020.0 mb 0.00 in0.0 mm 0.00 in0.0 mm 0.00 in0.0 mm
12:40 AM 70.0°F21.1°C 67.6°F19.8°C 92% Calm Calm -- 30.12 in1020.0 mb 0.00 in0.0 mm 0.00 in0.0 mm 0.00 in0.0 mm
12:45 AM 70.0°F21.1°C 67.6°F19.8°C 92% Calm Calm -- 30.12 in1020.0 mb 0.00 in0.0 mm 0.00 in0.0 mm 0.00 in0.0 mm
12:50 AM 70.0°F21.1°C 67.6°F19.8°C 92% Calm Calm -- 30.12 in1020.0 mb 0.00 in0.0 mm 0.00 in0.0 mm 0.00 in0.0 mm
12:55 AM 69.9°F21.1°C 67.5°F19.7°C 92% Calm Calm -- 30.12 in1020.0 mb 0.00 in0.0 mm 0.00 in0.0 mm 0.00 in0.0 mm
01:00 AM 70.0°F21.1°C 67.9°F19.9°C 93% Calm Calm -- 30.12 in1020.0 mb 0.00 in0.0 mm 0.00 in0.0 mm 0.00 in0.0 mm
01:05 AM 70.0°F21.1°C 67.9°F19.9°C 93% Calm Calm -- 30.11 in1019.6 mb 0.00 in0.0 mm 0.00 in0.0 mm 0.00 in0.0 mm
01:10 AM 70.0°F21.1°C 67.9°F19.9°C 93% Calm Calm -- 30.11 in1019.6 mb 0.00 in0.0 mm 0.00 in0.0 mm 0.00 in0.0 mm
01:15 AM 70.0°F21.1°C 67.9°F19.9°C 93% Calm Calm -- 30.11 in1019.6 mb 0.00 in0.0 mm 0.00 in0.0 mm 0.00 in0.0 mm
01:20 AM 70.1°F21.2°C 68.3°F20.2°C 94% Calm Calm -- 30.11 in1019.6 mb 0.00 in0.0 mm 0.00 in0.0 mm 0.00 in0.0 mm
01:25 AM 70.4°F21.3°C 68.6°F20.3°C 94% Calm Calm -- 30.11 in1019.6 mb 0.00 in0.0 mm 0.00 in0.0 mm 0.00 in0.0 mm
01:30 AM 70.4°F21.3°C 68.6°F20.3°C 94% Calm Calm -- 30.11 in1019.6 mb 0.00 in0.0 mm 0.00 in0.0 mm 0.00 in0.0 mm
01:35 AM 70.4°F21.3°C 68.3°F20.2°C 93% Calm Calm -- 30.11 in1019.6 mb 0.00 in0.0 mm 0.00 in0.0 mm 0.00 in0.0 mm
01:40 AM 70.5°F21.4°C 68.7°F20.4°C 94% Calm Calm -- 30.11 in1019.6 mb 0.00 in0.0 mm 0.00 in0.0 mm 0.00 in0.0 mm
01:45 AM 70.6°F21.4°C 68.8°F20.4°C 94% Calm Calm -- 30.11 in1019.6 mb 0.00 in0.0 mm 0.00 in0.0 mm 0.00 in0.0 mm
01:50 AM 70.7°F21.5°C 68.9°F20.5°C 94% Calm Calm -- 30.11 in1019.6 mb 0.00 in0.0 mm 0.00 in0.0 mm 0.00 in0.0 mm
01:55 AM 70.8°F21.6°C 69.0°F20.6°C 94% Calm Calm -- 30.11 in1019.6 mb 0.00 in0.0 mm 0.00 in0.0 mm 0.00 in0.0 mm
02:00 AM 70.8°F21.6°C 69.0°F20.6°C 94% Calm Calm -- 30.10 in1019.3 mb 0.00 in0.0 mm 0.00 in0.0 mm 0.00 in0.0 mm
02:05 AM 71.0°F21.7°C 69.2°F20.7°C 94% Calm Calm -- 30.10 in1019.3 mb 0.00 in0.0 mm 0.00 in0.0 mm 0.00 in0.0 mm
02:10 AM 71.0°F21.7°C 69.2°F20.7°C 94% Calm Calm -- 30.10 in1019.3 mb 0.00 in0.0 mm 0.00 in0.0 mm 0.00 in0.0 mm
02:15 AM 71.0°F21.7°C 69.2°F20.7°C 94% Calm Calm -- 30.10 in1019.3 mb 0.00 in0.0 mm 0.00 in0.0 mm 0.00 in0.0 mm
02:20 AM 71.1°F21.7°C 69.3°F20.7°C 94% Calm Calm -- 30.10 in1019.3 mb 0.00 in0.0 mm 0.00 in0.0 mm 0.00 in0.0 mm
02:25 AM 71.2°F21.8°C 69.4°F20.8°C 94% Calm Calm -- 30.10 in1019.3 mb 0.00 in0.0 mm 0.00 in0.0 mm 0.00 in0.0 mm
02:30 AM 71.3°F21.8°C 69.5°F20.8°C 94% Calm Calm -- 30.10 in1019.3 mb 0.00 in0.0 mm 0.00 in0.0 mm 0.00 in0.0 mm
02:35 AM 71.3°F21.8°C 69.5°F20.8°C 94% Calm Calm -- 30.10 in1019.3 mb 0.00 in0.0 mm 0.00 in0.0 mm 0.00 in0.0 mm
02:40 AM 71.3°F21.8°C 69.8°F21.0°C 95% Calm Calm -- 30.10 in1019.3 mb 0.00 in0.0 mm 0.00 in0.0 mm 0.00 in0.0 mm
02:45 AM 71.3°F21.8°C 69.5°F20.8°C 94% Calm Calm -- 30.10 in1019.3 mb 0.00 in0.0 mm 0.00 in0.0 mm 0.00 in0.0 mm
02:50 AM 71.3°F21.8°C 69.5°F20.8°C 94% Calm Calm -- 30.10 in1019.3 mb 0.00 in0.0 mm 0.00 in0.0 mm 0.00 in0.0 mm
02:55 AM 71.3°F21.8°C 69.5°F20.8°C 94% Calm Calm -- 30.10 in1019.3 mb 0.00 in0.0 mm 0.00 in0.0 mm 0.00 in0.0 mm
03:00 AM 71.3°F21.8°C 69.5°F20.8°C 94% Calm Calm -- 30.10 in1019.3 mb 0.00 in0.0 mm 0.00 in0.0 mm 0.00 in0.0 mm
03:05 AM 71.4°F21.9°C 69.6°F20.9°C 94% Calm Calm -- 30.10 in1019.3 mb 0.00 in0.0 mm 0.00 in0.0 mm 0.00 in0.0 mm
03:10 AM 71.5°F21.9°C 70.0°F21.1°C 95% Calm Calm -- 30.10 in1019.3 mb 0.00 in0.0 mm 0.00 in0.0 mm 0.00 in0.0 mm
03:15 AM 71.5°F21.9°C 70.0°F21.1°C 95% Calm Calm -- 30.10 in1019.3 mb 0.00 in0.0 mm 0.00 in0.0 mm 0.00 in0.0 mm
03:20 AM 71.5°F21.9°C 70.0°F21.1°C 95% Calm Calm -- 30.10 in1019.3 mb 0.00 in0.0 mm 0.00 in0.0 mm 0.00 in0.0 mm
03:25 AM 71.5°F21.9°C 69.7°F20.9°C 94% Calm Calm -- 30.10 in1019.3 mb 0.00 in0.0 mm 0.00 in0.0 mm 0.00 in0.0 mm
03:30 AM 71.4°F21.9°C 69.6°F20.9°C 94% Calm Calm -- 30.10 in1019.3 mb 0.00 in0.0 mm 0.00 in0.0 mm 0.00 in0.0 mm
03:35 AM 71.4°F21.9°C 69.6°F20.9°C 94% Calm Calm -- 30.10 in1019.3 mb 0.00 in0.0 mm 0.00 in0.0 mm 0.00 in0.0 mm
03:40 AM 71.3°F21.8°C 69.5°F20.8°C 94% Calm Calm -- 30.10 in1019.3 mb 0.00 in0.0 mm 0.00 in0.0 mm 0.00 in0.0 mm
03:45 AM 71.2°F21.8°C 69.4°F20.8°C 94% Calm Calm -- 30.09 in1019.0 mb 0.00 in0.0 mm 0.00 in0.0 mm 0.00 in0.0 mm
03:50 AM 71.3°F21.8°C 69.5°F20.8°C 94% Calm Calm -- 30.10 in1019.3 mb 0.00 in0.0 mm 0.00 in0.0 mm 0.00 in0.0 mm
03:55 AM 71.3°F21.8°C 69.8°F21.0°C 95% Calm Calm -- 30.09 in1019.0 mb 0.00 in0.0 mm 0.00 in0.0 mm 0.00 in0.0 mm
04:00 AM 71.3°F21.8°C 69.8°F21.0°C 95% Calm Calm -- 30.09 in1019.0 mb 0.00 in0.0 mm 0.00 in0.0 mm 0.00 in0.0 mm
04:05 AM 71.3°F21.8°C 69.8°F21.0°C 95% Calm Calm -- 30.10 in1019.3 mb 0.00 in0.0 mm 0.00 in0.0 mm 0.00 in0.0 mm
04:10 AM 71.3°F21.8°C 69.5°F20.8°C 94% Calm Calm -- 30.10 in1019.3 mb 0.00 in0.0 mm 0.00 in0.0 mm 0.00 in0.0 mm
04:15 AM 71.2°F21.8°C 69.4°F20.8°C 94% Calm Calm -- 30.10 in1019.3 mb 0.00 in0.0 mm 0.00 in0.0 mm 0.00 in0.0 mm
04:20 AM 71.1°F21.7°C 69.3°F20.7°C 94% Calm Calm -- 30.10 in1019.3 mb 0.00 in0.0 mm 0.00 in0.0 mm 0.00 in0.0 mm
04:25 AM 71.0°F21.7°C 69.2°F20.7°C 94% Calm Calm -- 30.10 in1019.3 mb 0.00 in0.0 mm 0.00 in0.0 mm 0.00 in0.0 mm
04:30 AM 71.0°F21.7°C 69.2°F20.7°C 94% Calm Calm -- 30.10 in1019.3 mb 0.00 in0.0 mm 0.00 in0.0 mm 0.00 in0.0 mm
04:35 AM 71.0°F21.7°C 69.5°F20.8°C 95% Calm Calm -- 30.11 in1019.6 mb 0.00 in0.0 mm 0.00 in0.0 mm 0.00 in0.0 mm
04:40 AM 71.0°F21.7°C 69.5°F20.8°C 95% Calm Calm -- 30.11 in1019.6 mb 0.00 in0.0 mm 0.00 in0.0 mm 0.00 in0.0 mm
04:45 AM 71.0°F21.7°C 69.5°F20.8°C 95% Calm Calm -- 30.11 in1019.6 mb 0.00 in0.0 mm 0.00 in0.0 mm 0.00 in0.0 mm
04:50 AM 71.1°F21.7°C 69.6°F20.9°C 95% Calm Calm -- 30.11 in1019.6 mb 0.00 in0.0 mm 0.00 in0.0 mm 0.00 in0.0 mm
04:55 AM 71.1°F21.7°C 69.6°F20.9°C 95% Calm Calm -- 30.11 in1019.6 mb 0.00 in0.0 mm 0.00 in0.0 mm 0.00 in0.0 mm
05:00 AM 71.2°F21.8°C 69.7°F20.9°C 95% Calm Calm -- 30.11 in1019.6 mb 0.00 in0.0 mm 0.00 in0.0 mm 0.00 in0.0 mm
05:05 AM 71.2°F21.8°C 69.7°F20.9°C 95% Calm Calm -- 30.11 in1019.6 mb 0.00 in0.0 mm 0.00 in0.0 mm 0.00 in0.0 mm
05:10 AM 71.5°F21.9°C 70.0°F21.1°C 95% Calm Calm 2.0 mph3.2 kmh 30.11 in1019.6 mb 0.00 in0.0 mm 0.00 in0.0 mm 0.00 in0.0 mm
05:15 AM 71.7°F22.1°C 70.5°F21.4°C 96% Calm Calm 2.0 mph3.2 kmh 30.11 in1019.6 mb 0.00 in0.0 mm 0.00 in0.0 mm 0.00 in0.0 mm
05:20 AM 72.0°F22.2°C 70.8°F21.6°C 96% 1.0 mph ENE1.6 kmh ENE 2.0 mph3.2 kmh 30.11 in1019.6 mb 0.00 in0.0 mm 0.00 in0.0 mm 0.00 in0.0 mm
05:25 AM 72.1°F22.3°C 70.9°F21.6°C 96% Calm Calm 2.0 mph3.2 kmh 30.11 in1019.6 mb 0.00 in0.0 mm 0.00 in0.0 mm 0.00 in0.0 mm
05:30 AM 72.3°F22.4°C 71.1°F21.7°C 96% Calm Calm 2.0 mph3.2 kmh 30.11 in1019.6 mb 0.00 in0.0 mm 0.00 in0.0 mm 0.00 in0.0 mm
05:35 AM 72.4°F22.4°C 71.2°F21.8°C 96% 1.0 mph NNE1.6 kmh NNE 2.0 mph3.2 kmh 30.12 in1020.0 mb 0.00 in0.0 mm 0.00 in0.0 mm 0.00 in0.0 mm
05:40 AM 72.4°F22.4°C 71.2°F21.8°C 96% 1.0 mph NNE1.6 kmh NNE 3.0 mph4.8 kmh 30.12 in1020.0 mb 0.00 in0.0 mm 0.00 in0.0 mm 0.00 in0.0 mm
05:45 AM 72.6°F22.6°C 71.4°F21.9°C 96% 1.0 mph NNE1.6 kmh NNE 3.0 mph4.8 kmh 30.12 in1020.0 mb 0.00 in0.0 mm 0.00 in0.0 mm 0.00 in0.0 mm
05:50 AM 72.7°F22.6°C 71.5°F21.9°C 96% 1.0 mph NNE1.6 kmh NNE 2.0 mph3.2 kmh 30.12 in1020.0 mb 0.00 in0.0 mm 0.00 in0.0 mm 0.00 in0.0 mm
05:55 AM 72.7°F22.6°C 71.5°F21.9°C 96% 1.0 mph NNE1.6 kmh NNE 4.0 mph6.4 kmh 30.12 in1020.0 mb 0.00 in0.0 mm 0.00 in0.0 mm 0.00 in0.0 mm
06:00 AM 72.8°F22.7°C 71.6°F22.0°C 96% 1.0 mph N1.6 kmh N 4.0 mph6.4 kmh 30.12 in1020.0 mb 0.00 in0.0 mm 0.00 in0.0 mm 0.00 in0.0 mm
06:05 AM 72.9°F22.7°C 71.7°F22.1°C 96% 1.0 mph N1.6 kmh N 3.0 mph4.8 kmh 30.13 in1020.3 mb 0.00 in0.0 mm 0.00 in0.0 mm 0.00 in0.0 mm
06:10 AM 72.8°F22.7°C 71.6°F22.0°C 96% 2.0 mph NE3.2 kmh NE 5.0 mph8.0 kmh 30.13 in1020.3 mb 0.00 in0.0 mm 0.00 in0.0 mm 0.00 in0.0 mm
06:15 AM 72.9°F22.7°C 71.7°F22.1°C 96% 2.0 mph NE3.2 kmh NE 5.0 mph8.0 kmh 30.13 in1020.3 mb 0.00 in0.0 mm 0.00 in0.0 mm 0.00 in0.0 mm
06:20 AM 72.8°F22.7°C 71.6°F22.0°C 96% 2.0 mph NE3.2 kmh NE 4.0 mph6.4 kmh 30.13 in1020.3 mb 0.00 in0.0 mm 0.00 in0.0 mm 0.00 in0.0 mm
06:25 AM 72.8°F22.7°C 71.3°F21.8°C 95% 1.0 mph NE1.6 kmh NE 3.0 mph4.8 kmh 30.14 in1020.7 mb 0.00 in0.0 mm 0.00 in0.0 mm 0.00 in0.0 mm
06:30 AM 72.8°F22.7°C 71.3°F21.8°C 95% 1.0 mph NE1.6 kmh NE 3.0 mph4.8 kmh 30.14 in1020.7 mb 0.00 in0.0 mm 0.00 in0.0 mm 0.00 in0.0 mm
06:35 AM 72.8°F22.7°C 71.3°F21.8°C 95% 1.0 mph NE1.6 kmh NE 3.0 mph4.8 kmh 30.14 in1020.7 mb 0.00 in0.0 mm 0.00 in0.0 mm 0.00 in0.0 mm
06:40 AM 72.8°F22.7°C 71.3°F21.8°C 95% 1.0 mph NE1.6 kmh NE 3.0 mph4.8 kmh 30.14 in1020.7 mb 0.00 in0.0 mm 0.00 in0.0 mm 0.00 in0.0 mm
06:45 AM 72.7°F22.6°C 71.2°F21.8°C 95% 2.0 mph NNE3.2 kmh NNE 4.0 mph6.4 kmh 30.14 in1020.7 mb 0.00 in0.0 mm 0.00 in0.0 mm 0.00 in0.0 mm
06:50 AM 72.7°F22.6°C 71.2°F21.8°C 95% 1.0 mph NNE1.6 kmh NNE 4.0 mph6.4 kmh 30.15 in1021.0 mb 0.00 in0.0 mm 0.00 in0.0 mm 0.00 in0.0 mm
06:55 AM 72.7°F22.6°C 71.2°F21.8°C 95% 1.0 mph NNE1.6 kmh NNE 4.0 mph6.4 kmh 30.14 in1020.7 mb 0.00 in0.0 mm 0.00 in0.0 mm 0.00 in0.0 mm
07:00 AM 72.6°F22.6°C 71.1°F21.7°C 95% Calm Calm 3.0 mph4.8 kmh 30.15 in1021.0 mb 0.00 in0.0 mm 0.00 in0.0 mm 0.00 in0.0 mm
07:05 AM 72.6°F22.6°C 71.1°F21.7°C 95% Calm Calm -- 30.15 in1021.0 mb 0.00 in0.0 mm 0.00 in0.0 mm 0.00 in0.0 mm
07:10 AM 72.7°F22.6°C 71.2°F21.8°C 95% Calm Calm 3.0 mph4.8 kmh 30.15 in1021.0 mb 0.00 in0.0 mm 0.00 in0.0 mm 0.00 in0.0 mm
07:15 AM 72.8°F22.7°C 71.3°F21.8°C 95% 1.0 mph NNE1.6 kmh NNE 3.0 mph4.8 kmh 30.15 in1021.0 mb 0.00 in0.0 mm 0.00 in0.0 mm 0.00 in0.0 mm
07:20 AM 72.9°F22.7°C 71.4°F21.9°C 95% 1.0 mph NNE1.6 kmh NNE 3.0 mph4.8 kmh 30.15 in1021.0 mb 0.00 in0.0 mm 0.00 in0.0 mm 0.00 in0.0 mm
07:25 AM 72.9°F22.7°C 71.7°F22.1°C 96% 2.0 mph NNE3.2 kmh NNE 4.0 mph6.4 kmh 30.16 in1021.3 mb 0.00 in0.0 mm 0.00 in0.0 mm 0.00 in0.0 mm
07:30 AM 73.1°F22.8°C 71.9°F22.2°C 96% 2.0 mph NE3.2 kmh NE 5.0 mph8.0 kmh 30.15 in1021.0 mb 0.00 in0.0 mm 0.00 in0.0 mm 0.00 in0.0 mm
07:35 AM 73.2°F22.9°C 72.0°F22.2°C 96% 2.0 mph NE3.2 kmh NE 5.0 mph8.0 kmh 30.16 in1021.3 mb 0.00 in0.0 mm 0.00 in0.0 mm 0.00 in0.0 mm
07:40 AM 73.2°F22.9°C 72.0°F22.2°C 96% 1.0 mph E1.6 kmh E 4.0 mph6.4 kmh 30.16 in1021.3 mb 0.00 in0.0 mm 0.00 in0.0 mm 0.00 in0.0 mm
07:45 AM 73.5°F23.1°C 72.3°F22.4°C 96% 1.0 mph NE1.6 kmh NE 4.0 mph6.4 kmh 30.16 in1021.3 mb 0.00 in0.0 mm 0.00 in0.0 mm 0.00 in0.0 mm
07:50 AM 73.7°F23.2°C 72.5°F22.5°C 96% 2.0 mph NE3.2 kmh NE 5.0 mph8.0 kmh 30.16 in1021.3 mb 0.00 in0.0 mm 0.00 in0.0 mm 0.00 in0.0 mm
07:55 AM 73.8°F23.2°C 72.6°F22.6°C 96% 1.0 mph NE1.6 kmh NE 5.0 mph8.0 kmh 30.16 in1021.3 mb 0.00 in0.0 mm 0.00 in0.0 mm 0.00 in0.0 mm
08:00 AM 74.0°F23.3°C 72.8°F22.7°C 96% 2.0 mph NE3.2 kmh NE 5.0 mph8.0 kmh 30.16 in1021.3 mb 0.00 in0.0 mm 0.00 in0.0 mm 0.00 in0.0 mm
08:05 AM 74.1°F23.4°C 72.9°F22.7°C 96% 2.0 mph NE3.2 kmh NE 5.0 mph8.0 kmh 30.16 in1021.3 mb 0.00 in0.0 mm 0.00 in0.0 mm 0.00 in0.0 mm
08:10 AM 74.1°F23.4°C 72.9°F22.7°C 96% 2.0 mph NE3.2 kmh NE 5.0 mph8.0 kmh 30.16 in1021.3 mb 0.00 in0.0 mm 0.00 in0.0 mm 0.00 in0.0 mm
08:15 AM 74.3°F23.5°C 73.1°F22.8°C 96% 2.0 mph NE3.2 kmh NE 5.0 mph8.0 kmh 30.16 in1021.3 mb 0.00 in0.0 mm 0.00 in0.0 mm 0.00 in0.0 mm
08:20 AM 74.3°F23.5°C 73.1°F22.8°C 96% 2.0 mph NE3.2 kmh NE 5.0 mph8.0 kmh 30.17 in1021.7 mb 0.00 in0.0 mm 0.00 in0.0 mm 0.00 in0.0 mm
08:25 AM 74.5°F23.6°C 73.0°F22.8°C 95% 1.0 mph NE1.6 kmh NE 4.0 mph6.4 kmh 30.16 in1021.3 mb 0.00 in0.0 mm 0.00 in0.0 mm 0.00 in0.0 mm
08:30 AM 74.6°F23.7°C 73.1°F22.8°C 95% 2.0 mph NE3.2 kmh NE 6.0 mph9.7 kmh 30.17 in1021.7 mb 0.00 in0.0 mm 0.00 in0.0 mm 0.00 in0.0 mm
08:35 AM 74.8°F23.8°C 73.3°F22.9°C 95% 3.0 mph NE4.8 kmh NE 7.0 mph11.3 kmh 30.17 in1021.7 mb 0.00 in0.0 mm 0.00 in0.0 mm 0.00 in0.0 mm
08:40 AM 74.8°F23.8°C 73.0°F22.8°C 94% 3.0 mph NE4.8 kmh NE 7.0 mph11.3 kmh 30.18 in1022.0 mb 0.00 in0.0 mm 0.00 in0.0 mm 0.00 in0.0 mm
08:45 AM 74.9°F23.8°C 73.1°F22.8°C 94% 3.0 mph NE4.8 kmh NE 6.0 mph9.7 kmh 30.18 in1022.0 mb 0.00 in0.0 mm 0.00 in0.0 mm 0.00 in0.0 mm
08:50 AM 75.2°F24.0°C 73.4°F23.0°C 94% 3.0 mph NE4.8 kmh NE 6.0 mph9.7 kmh 30.18 in1022.0 mb 0.00 in0.0 mm 0.00 in0.0 mm 0.00 in0.0 mm
08:55 AM 75.3°F24.1°C 73.1°F22.8°C 93% 3.0 mph NE4.8 kmh NE 9.0 mph14.5 kmh 30.18 in1022.0 mb 0.00 in0.0 mm 0.00 in0.0 mm 0.00 in0.0 mm
09:00 AM 75.4°F24.1°C 72.9°F22.7°C 92% 3.0 mph NE4.8 kmh NE 9.0 mph14.5 kmh 30.18 in1022.0 mb 0.00 in0.0 mm 0.00 in0.0 mm 0.00 in0.0 mm
09:05 AM 75.5°F24.2°C 73.0°F22.8°C 92% 3.0 mph NE4.8 kmh NE 9.0 mph14.5 kmh 30.18 in1022.0 mb 0.00 in0.0 mm 0.00 in0.0 mm 0.00 in0.0 mm
09:10 AM 75.7°F24.3°C 73.2°F22.9°C 92% 3.0 mph NNE4.8 kmh NNE 9.0 mph14.5 kmh 30.19 in1022.4 mb 0.00 in0.0 mm 0.00 in0.0 mm 0.00 in0.0 mm
09:15 AM 75.7°F24.3°C 72.9°F22.7°C 91% 3.0 mph NNE4.8 kmh NNE 9.0 mph14.5 kmh 30.18 in1022.0 mb 0.00 in0.0 mm 0.00 in0.0 mm 0.00 in0.0 mm
09:20 AM 75.8°F24.3°C 73.0°F22.8°C 91% 3.0 mph NE4.8 kmh NE 9.0 mph14.5 kmh 30.19 in1022.4 mb 0.00 in0.0 mm 0.00 in0.0 mm 0.00 in0.0 mm
09:25 AM 75.9°F24.4°C 73.1°F22.8°C 91% 3.0 mph NE4.8 kmh NE 7.0 mph11.3 kmh 30.19 in1022.4 mb 0.00 in0.0 mm 0.00 in0.0 mm 0.00 in0.0 mm
09:30 AM 76.0°F24.4°C 72.9°F22.7°C 90% 3.0 mph NNE4.8 kmh NNE 6.0 mph9.7 kmh 30.19 in1022.4 mb 0.00 in0.0 mm 0.00 in0.0 mm 0.00 in0.0 mm
09:35 AM 76.0°F24.4°C 72.9°F22.7°C 90% 3.0 mph NNE4.8 kmh NNE 6.0 mph9.7 kmh 30.19 in1022.4 mb 0.00 in0.0 mm 0.00 in0.0 mm 0.00 in0.0 mm
09:40 AM 76.2°F24.6°C 73.1°F22.8°C 90% 3.0 mph NE4.8 kmh NE 5.0 mph8.0 kmh 30.19 in1022.4 mb 0.00 in0.0 mm 0.00 in0.0 mm 0.00 in0.0 mm
09:45 AM 76.3°F24.6°C 73.1°F22.8°C 90% 3.0 mph NE4.8 kmh NE 9.0 mph14.5 kmh 30.19 in1022.4 mb 0.00 in0.0 mm 0.00 in0.0 mm 0.00 in0.0 mm
09:50 AM 76.3°F24.6°C 72.8°F22.7°C 89% 3.0 mph NE4.8 kmh NE 9.0 mph14.5 kmh 30.19 in1022.4 mb 0.00 in0.0 mm 0.00 in0.0 mm 0.00 in0.0 mm
09:55 AM 76.5°F24.7°C 73.0°F22.8°C 89% 3.0 mph NE4.8 kmh NE 8.0 mph12.9 kmh 30.19 in1022.4 mb 0.00 in0.0 mm 0.00 in0.0 mm 0.00 in0.0 mm
10:00 AM 76.6°F24.8°C 73.1°F22.8°C 89% 4.0 mph NE6.4 kmh NE 8.0 mph12.9 kmh 30.19 in1022.4 mb 0.00 in0.0 mm 0.00 in0.0 mm 0.00 in0.0 mm
10:05 AM 76.7°F24.8°C 73.2°F22.9°C 89% 3.0 mph N4.8 kmh N 7.0 mph11.3 kmh 30.20 in1022.7 mb 0.00 in0.0 mm 0.00 in0.0 mm 0.00 in0.0 mm
10:10 AM 76.7°F24.8°C 72.9°F22.7°C 88% 4.0 mph N6.4 kmh N 9.0 mph14.5 kmh 30.20 in1022.7 mb 0.00 in0.0 mm 0.00 in0.0 mm 0.00 in0.0 mm
10:15 AM 76.6°F24.8°C 73.1°F22.8°C 89% 4.0 mph N6.4 kmh N 9.0 mph14.5 kmh 30.20 in1022.7 mb 0.00 in0.0 mm 0.00 in0.0 mm 0.00 in0.0 mm
10:20 AM 76.7°F24.8°C 72.9°F22.7°C 88% 3.0 mph NNE4.8 kmh NNE 8.0 mph12.9 kmh 30.20 in1022.7 mb 0.00 in0.0 mm 0.00 in0.0 mm 0.00 in0.0 mm
10:25 AM 76.8°F24.9°C 73.0°F22.8°C 88% 3.0 mph NE4.8 kmh NE 8.0 mph12.9 kmh 30.20 in1022.7 mb 0.00 in0.0 mm 0.00 in0.0 mm 0.00 in0.0 mm
10:30 AM 77.2°F25.1°C 73.4°F23.0°C 88% 2.0 mph NE3.2 kmh NE 8.0 mph12.9 kmh 30.20 in1022.7 mb 0.00 in0.0 mm 0.00 in0.0 mm 0.00 in0.0 mm
10:35 AM 77.4°F25.2°C 73.6°F23.1°C 88% 3.0 mph NNE4.8 kmh NNE 8.0 mph12.9 kmh 30.20 in1022.7 mb 0.00 in0.0 mm 0.00 in0.0 mm 0.00 in0.0 mm
10:40 AM 77.8°F25.4°C 73.6°F23.1°C 87% 4.0 mph NNE6.4 kmh NNE 9.0 mph14.5 kmh 30.19 in1022.4 mb 0.00 in0.0 mm 0.00 in0.0 mm 0.00 in0.0 mm
10:45 AM 78.0°F25.6°C 73.5°F23.1°C 86% 3.0 mph NE4.8 kmh NE 9.0 mph14.5 kmh 30.19 in1022.4 mb 0.00 in0.0 mm 0.00 in0.0 mm 0.00 in0.0 mm
10:50 AM 78.0°F25.6°C 73.5°F23.1°C 86% 3.0 mph NE4.8 kmh NE 7.0 mph11.3 kmh 30.19 in1022.4 mb 0.00 in0.0 mm 0.00 in0.0 mm 0.00 in0.0 mm
10:55 AM 78.0°F25.6°C 73.5°F23.1°C 86% 3.0 mph NE4.8 kmh NE 6.0 mph9.7 kmh 30.19 in1022.4 mb 0.00 in0.0 mm 0.00 in0.0 mm 0.00 in0.0 mm
11:00 AM 78.0°F25.6°C 73.8°F23.2°C 87% 2.0 mph NE3.2 kmh NE 5.0 mph8.0 kmh 30.19 in1022.4 mb 0.00 in0.0 mm 0.00 in0.0 mm 0.00 in0.0 mm
11:05 AM 78.0°F25.6°C 73.5°F23.1°C 86% 3.0 mph NNE4.8 kmh NNE 7.0 mph11.3 kmh 30.19 in1022.4 mb 0.00 in0.0 mm 0.00 in0.0 mm 0.00 in0.0 mm
11:10 AM 78.2°F25.7°C 74.0°F23.3°C 87% 3.0 mph NNE4.8 kmh NNE 8.0 mph12.9 kmh 30.18 in1022.0 mb 0.00 in0.0 mm 0.00 in0.0 mm 0.00 in0.0 mm
11:15 AM 78.5°F25.8°C 74.0°F23.3°C 86% 4.0 mph NNE6.4 kmh NNE 9.0 mph14.5 kmh 30.18 in1022.0 mb 0.00 in0.0 mm 0.00 in0.0 mm 0.00 in0.0 mm
11:20 AM 78.8°F26.0°C 74.3°F23.5°C 86% 4.0 mph NE6.4 kmh NE 9.0 mph14.5 kmh 30.18 in1022.0 mb 0.00 in0.0 mm 0.00 in0.0 mm 0.00 in0.0 mm
11:25 AM 79.6°F26.4°C 74.3°F23.5°C 84% 4.0 mph NE6.4 kmh NE 9.0 mph14.5 kmh 30.18 in1022.0 mb 0.00 in0.0 mm 0.00 in0.0 mm 0.00 in0.0 mm
11:30 AM 80.1°F26.7°C 74.5°F23.6°C 83% 4.0 mph NNE6.4 kmh NNE 8.0 mph12.9 kmh 30.18 in1022.0 mb 0.00 in0.0 mm 0.00 in0.0 mm 0.00 in0.0 mm
11:35 AM 80.5°F26.9°C 74.9°F23.8°C 83% 3.0 mph NE4.8 kmh NE 8.0 mph12.9 kmh 30.17 in1021.7 mb 0.00 in0.0 mm 0.00 in0.0 mm 0.00 in0.0 mm
11:40 AM 80.5°F26.9°C 74.1°F23.4°C 81% 3.0 mph NE4.8 kmh NE 9.0 mph14.5 kmh 30.17 in1021.7 mb 0.00 in0.0 mm 0.00 in0.0 mm 0.00 in0.0 mm
11:45 AM 80.5°F26.9°C 74.5°F23.6°C 82% 3.0 mph NE4.8 kmh NE 9.0 mph14.5 kmh 30.17 in1021.7 mb 0.00 in0.0 mm 0.00 in0.0 mm 0.00 in0.0 mm
11:50 AM 80.8°F27.1°C 74.8°F23.8°C 82% 3.0 mph NNE4.8 kmh NNE 8.0 mph12.9 kmh 30.17 in1021.7 mb 0.00 in0.0 mm 0.00 in0.0 mm 0.00 in0.0 mm
11:55 AM 81.5°F27.5°C 75.1°F23.9°C 81% 4.0 mph N6.4 kmh N 9.0 mph14.5 kmh 30.16 in1021.3 mb 0.00 in0.0 mm 0.00 in0.0 mm 0.00 in0.0 mm
12:00 PM 82.0°F27.8°C 75.2°F24.0°C 80% 4.0 mph N6.4 kmh N 9.0 mph14.5 kmh 30.16 in1021.3 mb 0.00 in0.0 mm 0.00 in0.0 mm 0.00 in0.0 mm
12:05 PM 82.3°F27.9°C 75.1°F23.9°C 79% 4.0 mph NNE6.4 kmh NNE 9.0 mph14.5 kmh 30.16 in1021.3 mb 0.00 in0.0 mm 0.00 in0.0 mm 0.00 in0.0 mm
12:10 PM 82.5°F28.1°C 75.3°F24.1°C 79% 4.0 mph NNE6.4 kmh NNE 12.0 mph19.3 kmh 30.15 in1021.0 mb 0.00 in0.0 mm 0.00 in0.0 mm 0.00 in0.0 mm
12:15 PM 83.0°F28.3°C 75.4°F24.1°C 78% 4.0 mph NNE6.4 kmh NNE 12.0 mph19.3 kmh 30.15 in1021.0 mb 0.00 in0.0 mm 0.00 in0.0 mm 0.00 in0.0 mm
12:20 PM 83.3°F28.5°C 75.3°F24.1°C 77% 4.0 mph NNE6.4 kmh NNE 8.0 mph12.9 kmh 30.15 in1021.0 mb 0.00 in0.0 mm 0.00 in0.0 mm 0.00 in0.0 mm
12:25 PM 83.0°F28.3°C 74.6°F23.7°C 76% 4.0 mph NNE6.4 kmh NNE 11.0 mph17.7 kmh 30.15 in1021.0 mb 0.00 in0.0 mm 0.00 in0.0 mm 0.00 in0.0 mm
12:30 PM 82.7°F28.2°C 74.8°F23.8°C 77% 4.0 mph NNE6.4 kmh NNE 11.0 mph17.7 kmh 30.14 in1020.7 mb 0.00 in0.0 mm 0.00 in0.0 mm 0.00 in0.0 mm
12:35 PM 83.0°F28.3°C 75.0°F23.9°C 77% 4.0 mph NNE6.4 kmh NNE 9.0 mph14.5 kmh 30.14 in1020.7 mb 0.00 in0.0 mm 0.00 in0.0 mm 0.00 in0.0 mm
12:40 PM 83.8°F28.8°C 75.4°F24.1°C 76% 4.0 mph NE6.4 kmh NE 9.0 mph14.5 kmh 30.14 in1020.7 mb 0.00 in0.0 mm 0.00 in0.0 mm 0.00 in0.0 mm
12:45 PM 84.2°F29.0°C 75.4°F24.1°C 75% 3.0 mph NE4.8 kmh NE 7.0 mph11.3 kmh 30.13 in1020.3 mb 0.00 in0.0 mm 0.00 in0.0 mm 0.00 in0.0 mm
12:50 PM 84.6°F29.2°C 75.4°F24.1°C 74% 2.0 mph NE3.2 kmh NE 8.0 mph12.9 kmh 30.13 in1020.3 mb 0.00 in0.0 mm 0.00 in0.0 mm 0.00 in0.0 mm
12:55 PM 84.9°F29.4°C 74.9°F23.8°C 72% 3.0 mph NE4.8 kmh NE 9.0 mph14.5 kmh 30.13 in1020.3 mb 0.00 in0.0 mm 0.00 in0.0 mm 0.00 in0.0 mm
01:00 PM 84.6°F29.2°C 75.8°F24.3°C 75% 4.0 mph NE6.4 kmh NE 9.0 mph14.5 kmh 30.13 in1020.3 mb 0.00 in0.0 mm 0.00 in0.0 mm 0.00 in0.0 mm
01:05 PM 83.7°F28.7°C 74.9°F23.8°C 75% 3.0 mph NNE4.8 kmh NNE 6.0 mph9.7 kmh 30.12 in1020.0 mb 0.00 in0.0 mm 0.00 in0.0 mm 0.00 in0.0 mm
01:10 PM 82.9°F28.3°C 75.3°F24.1°C 78% 3.0 mph NE4.8 kmh NE 6.0 mph9.7 kmh 30.12 in1020.0 mb 0.01 in0.3 mm 0.12 in3.0 mm 0.01 in0.3 mm
01:15 PM 82.4°F28.0°C 75.6°F24.2°C 80% 2.0 mph NE3.2 kmh NE 5.0 mph8.0 kmh 30.12 in1020.0 mb 0.01 in0.3 mm 0.00 in0.0 mm 0.01 in0.3 mm
01:20 PM 82.7°F28.2°C 75.5°F24.2°C 79% 2.0 mph NE3.2 kmh NE 4.0 mph6.4 kmh 30.12 in1020.0 mb 0.01 in0.3 mm 0.00 in0.0 mm 0.01 in0.3 mm
01:25 PM 83.6°F28.7°C 76.4°F24.7°C 79% 2.0 mph NE3.2 kmh NE 7.0 mph11.3 kmh 30.11 in1019.6 mb 0.01 in0.3 mm 0.00 in0.0 mm 0.01 in0.3 mm
01:30 PM 84.4°F29.1°C 76.4°F24.7°C 77% 3.0 mph ENE4.8 kmh ENE 7.0 mph11.3 kmh 30.11 in1019.6 mb 0.01 in0.3 mm 0.00 in0.0 mm 0.01 in0.3 mm
01:35 PM 85.3°F29.6°C 76.1°F24.5°C 74% 3.0 mph NE4.8 kmh NE 8.0 mph12.9 kmh 30.11 in1019.6 mb 0.01 in0.3 mm 0.00 in0.0 mm 0.01 in0.3 mm
01:40 PM 85.9°F29.9°C 76.6°F24.8°C 74% 3.0 mph NE4.8 kmh NE 8.0 mph12.9 kmh 30.11 in1019.6 mb 0.01 in0.3 mm 0.00 in0.0 mm 0.01 in0.3 mm
01:45 PM 86.1°F30.1°C 76.0°F24.4°C 72% 3.0 mph N4.8 kmh N 7.0 mph11.3 kmh 30.11 in1019.6 mb 0.01 in0.3 mm 0.00 in0.0 mm 0.01 in0.3 mm
01:50 PM 85.9°F29.9°C 75.0°F23.9°C 70% 3.0 mph N4.8 kmh N 8.0 mph12.9 kmh 30.10 in1019.3 mb 0.01 in0.3 mm 0.00 in0.0 mm 0.01 in0.3 mm
01:55 PM 85.5°F29.7°C 75.0°F23.9°C 71% 3.0 mph N4.8 kmh N 10.0 mph16.1 kmh 30.10 in1019.3 mb 0.01 in0.3 mm 0.00 in0.0 mm 0.01 in0.3 mm
02:00 PM 85.1°F29.5°C 75.1°F23.9°C 72% 4.0 mph NNE6.4 kmh NNE 10.0 mph16.1 kmh 30.10 in1019.3 mb 0.01 in0.3 mm 0.00 in0.0 mm 0.01 in0.3 mm
02:05 PM 84.6°F29.2°C 75.0°F23.9°C 73% 4.0 mph N6.4 kmh N 9.0 mph14.5 kmh 30.10 in1019.3 mb 0.01 in0.3 mm 0.00 in0.0 mm 0.01 in0.3 mm
02:10 PM 84.1°F28.9°C 74.1°F23.4°C 72% 4.0 mph N6.4 kmh N 9.0 mph14.5 kmh 30.10 in1019.3 mb 0.00 in0.0 mm 0.00 in0.0 mm 0.01 in0.3 mm
02:15 PM 83.8°F28.8°C 74.2°F23.4°C 73% 4.0 mph N6.4 kmh N 9.0 mph14.5 kmh 30.10 in1019.3 mb 0.00 in0.0 mm 0.00 in0.0 mm 0.01 in0.3 mm
02:20 PM 83.6°F28.7°C 74.4°F23.6°C 74% 3.0 mph N4.8 kmh N 7.0 mph11.3 kmh 30.10 in1019.3 mb 0.00 in0.0 mm 0.00 in0.0 mm 0.01 in0.3 mm
02:25 PM 83.8°F28.8°C 74.6°F23.7°C 74% 3.0 mph N4.8 kmh N 6.0 mph9.7 kmh 30.10 in1019.3 mb 0.00 in0.0 mm 0.00 in0.0 mm 0.01 in0.3 mm
02:30 PM 84.6°F29.2°C 75.4°F24.1°C 74% 3.0 mph N4.8 kmh N 8.0 mph12.9 kmh 30.10 in1019.3 mb 0.00 in0.0 mm 0.00 in0.0 mm 0.01 in0.3 mm
02:35 PM 85.3°F29.6°C 75.2°F24.0°C 72% 4.0 mph NNE6.4 kmh NNE 8.0 mph12.9 kmh 30.10 in1019.3 mb 0.00 in0.0 mm 0.00 in0.0 mm 0.01 in0.3 mm
02:40 PM 84.9°F29.4°C 73.6°F23.1°C 69% 4.0 mph NE6.4 kmh NE 11.0 mph17.7 kmh 30.10 in1019.3 mb 0.00 in0.0 mm 0.00 in0.0 mm 0.01 in0.3 mm
02:45 PM 83.4°F28.6°C 72.6°F22.6°C 70% 6.0 mph ENE9.7 kmh ENE 14.0 mph22.5 kmh 30.10 in1019.3 mb 0.00 in0.0 mm 0.00 in0.0 mm 0.01 in0.3 mm
02:50 PM 81.6°F27.6°C 72.5°F22.5°C 74% 7.0 mph ENE11.3 kmh ENE 14.0 mph22.5 kmh 30.10 in1019.3 mb 0.00 in0.0 mm 0.00 in0.0 mm 0.01 in0.3 mm
02:55 PM 80.5°F26.9°C 71.8°F22.1°C 75% 5.0 mph E8.0 kmh E 13.0 mph20.9 kmh 30.09 in1019.0 mb 0.00 in0.0 mm 0.00 in0.0 mm 0.01 in0.3 mm
03:00 PM 80.0°F26.7°C 72.1°F22.3°C 77% 3.0 mph E4.8 kmh E 10.0 mph16.1 kmh 30.10 in1019.3 mb 0.00 in0.0 mm 0.00 in0.0 mm 0.01 in0.3 mm
03:05 PM 79.5°F26.4°C 72.0°F22.2°C 78% 3.0 mph E4.8 kmh E 8.0 mph12.9 kmh 30.10 in1019.3 mb 0.00 in0.0 mm 0.00 in0.0 mm 0.01 in0.3 mm
03:10 PM 79.3°F26.3°C 72.2°F22.3°C 79% 3.0 mph E4.8 kmh E 8.0 mph12.9 kmh 30.10 in1019.3 mb 0.00 in0.0 mm 0.00 in0.0 mm 0.01 in0.3 mm
03:15 PM 79.1°F26.2°C 71.6°F22.0°C 78% 3.0 mph E4.8 kmh E 13.0 mph20.9 kmh 30.10 in1019.3 mb 0.00 in0.0 mm 0.00 in0.0 mm 0.01 in0.3 mm
03:20 PM 78.8°F26.0°C 71.4°F21.9°C 78% 5.0 mph ENE8.0 kmh ENE 14.0 mph22.5 kmh 30.11 in1019.6 mb 0.00 in0.0 mm 0.00 in0.0 mm 0.01 in0.3 mm
03:25 PM 79.2°F26.2°C 72.5°F22.5°C 80% 6.0 mph ENE9.7 kmh ENE 14.0 mph22.5 kmh 30.10 in1019.3 mb 0.00 in0.0 mm 0.00 in0.0 mm 0.01 in0.3 mm
03:30 PM 79.7°F26.5°C 71.8°F22.1°C 77% 5.0 mph ENE8.0 kmh ENE 13.0 mph20.9 kmh 30.10 in1019.3 mb 0.00 in0.0 mm 0.00 in0.0 mm 0.01 in0.3 mm
03:35 PM 79.6°F26.4°C 71.4°F21.9°C 76% 5.0 mph ENE8.0 kmh ENE 12.0 mph19.3 kmh 30.11 in1019.6 mb 0.00 in0.0 mm 0.00 in0.0 mm 0.01 in0.3 mm
03:40 PM 79.3°F26.3°C 71.5°F21.9°C 77% 6.0 mph ENE9.7 kmh ENE 12.0 mph19.3 kmh 30.11 in1019.6 mb 0.00 in0.0 mm 0.00 in0.0 mm 0.01 in0.3 mm
03:45 PM 78.7°F25.9°C 71.6°F22.0°C 79% 6.0 mph ENE9.7 kmh ENE 11.0 mph17.7 kmh 30.11 in1019.6 mb 0.00 in0.0 mm 0.00 in0.0 mm 0.01 in0.3 mm
03:50 PM 78.1°F25.6°C 71.8°F22.1°C 81% 5.0 mph NE8.0 kmh NE 11.0 mph17.7 kmh 30.12 in1020.0 mb 0.00 in0.0 mm 0.00 in0.0 mm 0.01 in0.3 mm
03:55 PM 77.6°F25.3°C 71.7°F22.1°C 82% 4.0 mph NE6.4 kmh NE 12.0 mph19.3 kmh 30.12 in1020.0 mb 0.00 in0.0 mm 0.00 in0.0 mm 0.01 in0.3 mm
04:00 PM 77.0°F25.0°C 71.4°F21.9°C 83% 4.0 mph NE6.4 kmh NE 12.0 mph19.3 kmh 30.12 in1020.0 mb 0.00 in0.0 mm 0.00 in0.0 mm 0.01 in0.3 mm
04:05 PM 76.5°F24.7°C 70.9°F21.6°C 83% 5.0 mph NE8.0 kmh NE 11.0 mph17.7 kmh 30.12 in1020.0 mb 0.00 in0.0 mm 0.00 in0.0 mm 0.01 in0.3 mm
04:10 PM 75.8°F24.3°C 70.3°F21.3°C 83% 5.0 mph NE8.0 kmh NE 13.0 mph20.9 kmh 30.12 in1020.0 mb 0.04 in1.0 mm 0.48 in12.2 mm 0.05 in1.3 mm
04:15 PM 74.7°F23.7°C 70.2°F21.2°C 86% 5.0 mph ENE8.0 kmh ENE 13.0 mph20.9 kmh 30.12 in1020.0 mb 0.06 in1.5 mm 0.24 in6.1 mm 0.07 in1.8 mm
04:20 PM 74.0°F23.3°C 69.9°F21.1°C 87% 5.0 mph NE8.0 kmh NE 12.0 mph19.3 kmh 30.13 in1020.3 mb 0.08 in2.0 mm 0.24 in6.1 mm 0.09 in2.3 mm
04:25 PM 73.3°F22.9°C 69.2°F20.7°C 87% 5.0 mph NE8.0 kmh NE 12.0 mph19.3 kmh 30.13 in1020.3 mb 0.09 in2.3 mm 0.12 in3.0 mm 0.10 in2.5 mm
04:30 PM 72.8°F22.7°C 69.0°F20.6°C 88% 5.0 mph NE8.0 kmh NE 12.0 mph19.3 kmh 30.13 in1020.3 mb 0.12 in3.0 mm 0.36 in9.1 mm 0.13 in3.3 mm
04:35 PM 72.4°F22.4°C 69.0°F20.6°C 89% 4.0 mph NE6.4 kmh NE 10.0 mph16.1 kmh 30.14 in1020.7 mb 0.17 in4.3 mm 0.60 in15.2 mm 0.18 in4.6 mm
04:40 PM 72.1°F22.3°C 68.7°F20.4°C 89% 4.0 mph NE6.4 kmh NE 10.0 mph16.1 kmh 30.14 in1020.7 mb 0.20 in5.1 mm 0.36 in9.1 mm 0.21 in5.3 mm
04:45 PM 71.8°F22.1°C 68.7°F20.4°C 90% 3.0 mph NNE4.8 kmh NNE 8.0 mph12.9 kmh 30.14 in1020.7 mb 0.23 in5.8 mm 0.36 in9.1 mm 0.24 in6.1 mm
04:50 PM 71.7°F22.1°C 68.9°F20.5°C 91% 3.0 mph NNE4.8 kmh NNE 5.0 mph8.0 kmh 30.14 in1020.7 mb 0.25 in6.4 mm 0.24 in6.1 mm 0.26 in6.6 mm
04:55 PM 71.6°F22.0°C 68.8°F20.4°C 91% 3.0 mph NNE4.8 kmh NNE 5.0 mph8.0 kmh 30.14 in1020.7 mb 0.29 in7.4 mm 0.48 in12.2 mm 0.30 in7.6 mm
05:00 PM 71.7°F22.1°C 69.3°F20.7°C 92% 3.0 mph NNE4.8 kmh NNE 8.0 mph12.9 kmh 30.14 in1020.7 mb 0.32 in8.1 mm 0.03 in0.8 mm 0.33 in8.4 mm
05:05 PM 71.9°F22.2°C 69.4°F20.8°C 92% 3.0 mph NE4.8 kmh NE 8.0 mph12.9 kmh 30.14 in1020.7 mb 0.35 in8.9 mm 0.36 in9.1 mm 0.36 in9.1 mm
05:10 PM 72.1°F22.3°C 70.0°F21.1°C 93% 2.0 mph NE3.2 kmh NE 7.0 mph11.3 kmh 30.14 in1020.7 mb 0.34 in8.6 mm 0.00 in0.0 mm 0.39 in9.9 mm
05:15 PM 72.1°F22.3°C 70.0°F21.1°C 93% 2.0 mph NE3.2 kmh NE 6.0 mph9.7 kmh 30.14 in1020.7 mb 0.36 in9.1 mm 0.24 in6.1 mm 0.43 in10.9 mm
05:20 PM 72.2°F22.3°C 70.1°F21.2°C 93% 2.0 mph NE3.2 kmh NE 5.0 mph8.0 kmh 30.14 in1020.7 mb 0.38 in9.7 mm 0.24 in6.1 mm 0.47 in11.9 mm
05:25 PM 72.3°F22.4°C 70.2°F21.2°C 93% 2.0 mph NE3.2 kmh NE 6.0 mph9.7 kmh 30.14 in1020.7 mb 0.42 in10.7 mm 0.48 in12.2 mm 0.52 in13.2 mm
05:30 PM 72.4°F22.4°C 70.3°F21.3°C 93% 2.0 mph NE3.2 kmh NE 6.0 mph9.7 kmh 30.14 in1020.7 mb 0.43 in10.9 mm 0.12 in3.0 mm 0.56 in14.2 mm
05:35 PM 72.4°F22.4°C 70.3°F21.3°C 93% 2.0 mph NE3.2 kmh NE 4.0 mph6.4 kmh 30.14 in1020.7 mb 0.39 in9.9 mm 0.00 in0.0 mm 0.57 in14.5 mm
05:40 PM 72.5°F22.5°C 70.7°F21.5°C 94% 2.0 mph ENE3.2 kmh ENE 4.0 mph6.4 kmh 30.14 in1020.7 mb 0.36 in9.1 mm 0.00 in0.0 mm 0.58 in14.7 mm
05:45 PM 72.5°F22.5°C 70.7°F21.5°C 94% 1.0 mph ENE1.6 kmh ENE 4.0 mph6.4 kmh 30.14 in1020.7 mb 0.35 in8.9 mm 0.00 in0.0 mm 0.59 in15.0 mm
05:50 PM 72.5°F22.5°C 70.4°F21.3°C 93% 1.0 mph NE1.6 kmh NE 4.0 mph6.4 kmh 30.14 in1020.7 mb 0.32 in8.1 mm 0.00 in0.0 mm 0.59 in15.0 mm
05:55 PM 72.5°F22.5°C 70.4°F21.3°C 93% 1.0 mph NE1.6 kmh NE 4.0 mph6.4 kmh 30.14 in1020.7 mb 0.28 in7.1 mm 0.00 in0.0 mm 0.59 in15.0 mm
06:00 PM 72.5°F22.5°C 70.4°F21.3°C 93% 1.0 mph NNE1.6 kmh NNE 4.0 mph6.4 kmh 30.13 in1020.3 mb 0.26 in6.6 mm 0.00 in0.0 mm 0.59 in15.0 mm
06:05 PM 72.5°F22.5°C 70.4°F21.3°C 93% 1.0 mph NNE1.6 kmh NNE 4.0 mph6.4 kmh 30.13 in1020.3 mb 0.23 in5.8 mm 0.00 in0.0 mm 0.59 in15.0 mm
06:10 PM 72.4°F22.4°C 70.3°F21.3°C 93% 1.0 mph NNE1.6 kmh NNE 4.0 mph6.4 kmh 30.14 in1020.7 mb 0.21 in5.3 mm 0.00 in0.0 mm 0.60 in15.2 mm
06:15 PM 72.4°F22.4°C 70.6°F21.4°C 94% 1.0 mph NNE1.6 kmh NNE 4.0 mph6.4 kmh 30.13 in1020.3 mb 0.16 in4.1 mm 0.00 in0.0 mm 0.60 in15.2 mm
06:20 PM 72.4°F22.4°C 70.6°F21.4°C 94% 1.0 mph NNE1.6 kmh NNE 3.0 mph4.8 kmh 30.13 in1020.3 mb 0.12 in3.0 mm 0.00 in0.0 mm 0.60 in15.2 mm
06:25 PM 72.4°F22.4°C 70.6°F21.4°C 94% 1.0 mph NNE1.6 kmh NNE 2.0 mph3.2 kmh 30.13 in1020.3 mb 0.07 in1.8 mm 0.00 in0.0 mm 0.60 in15.2 mm
06:30 PM 72.3°F22.4°C 70.5°F21.4°C 94% 1.0 mph NNE1.6 kmh NNE 2.0 mph3.2 kmh 30.13 in1020.3 mb 0.04 in1.0 mm 0.00 in0.0 mm 0.60 in15.2 mm
06:35 PM 72.3°F22.4°C 70.5°F21.4°C 94% Calm Calm 3.0 mph4.8 kmh 30.14 in1020.7 mb 0.03 in0.8 mm 0.00 in0.0 mm 0.60 in15.2 mm
06:40 PM 72.2°F22.3°C 70.1°F21.2°C 93% 1.0 mph NNE1.6 kmh NNE 3.0 mph4.8 kmh 30.14 in1020.7 mb 0.02 in0.5 mm 0.00 in0.0 mm 0.60 in15.2 mm
06:45 PM 72.1°F22.3°C 70.0°F21.1°C 93% 1.0 mph NNE1.6 kmh NNE 2.0 mph3.2 kmh 30.14 in1020.7 mb 0.01 in0.3 mm 0.00 in0.0 mm 0.60 in15.2 mm
06:50 PM 72.1°F22.3°C 70.0°F21.1°C 93% 1.0 mph NNE1.6 kmh NNE 3.0 mph4.8 kmh 30.14 in1020.7 mb 0.01 in0.3 mm 0.00 in0.0 mm 0.60 in15.2 mm
06:55 PM 71.9°F22.2°C 69.8°F21.0°C 93% 1.0 mph NNE1.6 kmh NNE 3.0 mph4.8 kmh 30.14 in1020.7 mb 0.01 in0.3 mm 0.00 in0.0 mm 0.60 in15.2 mm
07:00 PM 72.0°F22.2°C 69.9°F21.1°C 93% 1.0 mph NNE1.6 kmh NNE 2.0 mph3.2 kmh 30.14 in1020.7 mb 0.01 in0.3 mm 0.00 in0.0 mm 0.60 in15.2 mm
07:05 PM 71.9°F22.2°C 69.8°F21.0°C 93% Calm Calm 2.0 mph3.2 kmh 30.14 in1020.7 mb 0.01 in0.3 mm 0.00 in0.0 mm 0.60 in15.2 mm
07:10 PM 71.8°F22.1°C 69.7°F20.9°C 93% Calm Calm 3.0 mph4.8 kmh 30.14 in1020.7 mb 0.00 in0.0 mm 0.00 in0.0 mm 0.60 in15.2 mm
07:15 PM 71.8°F22.1°C 69.7°F20.9°C 93% 1.0 mph NNE1.6 kmh NNE 3.0 mph4.8 kmh 30.14 in1020.7 mb 0.00 in0.0 mm 0.00 in0.0 mm 0.60 in15.2 mm
07:20 PM 71.8°F22.1°C 70.0°F21.1°C 94% 1.0 mph NNE1.6 kmh NNE 2.0 mph3.2 kmh 30.14 in1020.7 mb 0.00 in0.0 mm 0.00 in0.0 mm 0.60 in15.2 mm
07:25 PM 71.7°F22.1°C 69.9°F21.1°C 94% 1.0 mph NNE1.6 kmh NNE 2.0 mph3.2 kmh 30.14 in1020.7 mb 0.00 in0.0 mm 0.00 in0.0 mm 0.60 in15.2 mm
07:30 PM 71.8°F22.1°C 70.0°F21.1°C 94% 1.0 mph NNE1.6 kmh NNE 3.0 mph4.8 kmh 30.14 in1020.7 mb 0.00 in0.0 mm 0.00 in0.0 mm 0.60 in15.2 mm
07:35 PM 71.7°F22.1°C 69.9°F21.1°C 94% 1.0 mph NNE1.6 kmh NNE 3.0 mph4.8 kmh 30.14 in1020.7 mb 0.00 in0.0 mm 0.00 in0.0 mm 0.60 in15.2 mm
07:40 PM 71.8°F22.1°C 70.0°F21.1°C 94% Calm Calm 2.0 mph3.2 kmh 30.14 in1020.7 mb 0.00 in0.0 mm 0.00 in0.0 mm 0.60 in15.2 mm
07:45 PM 71.7°F22.1°C 69.9°F21.1°C 94% 1.0 mph NNE1.6 kmh NNE 3.0 mph4.8 kmh 30.14 in1020.7 mb 0.00 in0.0 mm 0.00 in0.0 mm 0.60 in15.2 mm
07:50 PM 71.7°F22.1°C 69.9°F21.1°C 94% 1.0 mph NNE1.6 kmh NNE 3.0 mph4.8 kmh 30.14 in1020.7 mb 0.00 in0.0 mm 0.00 in0.0 mm 0.60 in15.2 mm
07:55 PM 71.8°F22.1°C 70.0°F21.1°C 94% Calm Calm 2.0 mph3.2 kmh 30.14 in1020.7 mb 0.00 in0.0 mm 0.00 in0.0 mm 0.60 in15.2 mm
08:00 PM 71.7°F22.1°C 69.9°F21.1°C 94% Calm Calm 2.0 mph3.2 kmh 30.14 in1020.7 mb 0.00 in0.0 mm 0.00 in0.0 mm 0.60 in15.2 mm
08:05 PM 71.7°F22.1°C 69.9°F21.1°C 94% Calm Calm -- 30.14 in1020.7 mb 0.00 in0.0 mm 0.00 in0.0 mm 0.60 in15.2 mm
08:10 PM 71.7°F22.1°C 69.9°F21.1°C 94% Calm Calm -- 30.14 in1020.7 mb 0.00 in0.0 mm 0.00 in0.0 mm 0.60 in15.2 mm
08:15 PM 71.6°F22.0°C 69.8°F21.0°C 94% Calm Calm -- 30.14 in1020.7 mb 0.00 in0.0 mm 0.00 in0.0 mm 0.60 in15.2 mm
08:20 PM 71.5°F21.9°C 69.7°F20.9°C 94% Calm Calm -- 30.14 in1020.7 mb 0.00 in0.0 mm 0.00 in0.0 mm 0.60 in15.2 mm
08:25 PM 71.4°F21.9°C 69.6°F20.9°C 94% Calm Calm -- 30.15 in1021.0 mb 0.00 in0.0 mm 0.00 in0.0 mm 0.60 in15.2 mm
08:30 PM 71.3°F21.8°C 69.5°F20.8°C 94% Calm Calm -- 30.15 in1021.0 mb 0.00 in0.0 mm 0.00 in0.0 mm 0.60 in15.2 mm
08:35 PM 71.3°F21.8°C 69.5°F20.8°C 94% Calm Calm -- 30.15 in1021.0 mb 0.00 in0.0 mm 0.00 in0.0 mm 0.60 in15.2 mm
08:40 PM 71.3°F21.8°C 69.5°F20.8°C 94% Calm Calm -- 30.15 in1021.0 mb 0.00 in0.0 mm 0.00 in0.0 mm 0.60 in15.2 mm
08:45 PM 71.3°F21.8°C 69.5°F20.8°C 94% Calm Calm -- 30.15 in1021.0 mb 0.00 in0.0 mm 0.00 in0.0 mm 0.60 in15.2 mm
08:50 PM 71.3°F21.8°C 69.5°F20.8°C 94% Calm Calm -- 30.15 in1021.0 mb 0.00 in0.0 mm 0.00 in0.0 mm 0.60 in15.2 mm
08:55 PM 71.3°F21.8°C 69.5°F20.8°C 94% Calm Calm -- 30.15 in1021.0 mb 0.00 in0.0 mm 0.00 in0.0 mm 0.60 in15.2 mm
09:00 PM 71.3°F21.8°C 69.5°F20.8°C 94% Calm Calm -- 30.15 in1021.0 mb 0.00 in0.0 mm 0.00 in0.0 mm 0.60 in15.2 mm
09:05 PM 71.3°F21.8°C 69.5°F20.8°C 94% Calm Calm 2.0 mph3.2 kmh 30.15 in1021.0 mb 0.00 in0.0 mm 0.00 in0.0 mm 0.60 in15.2 mm
09:10 PM 71.5°F21.9°C 70.0°F21.1°C 95% 1.0 mph NNE1.6 kmh NNE 3.0 mph4.8 kmh 30.15 in1021.0 mb 0.00 in0.0 mm 0.00 in0.0 mm 0.60 in15.2 mm
09:15 PM 71.5°F21.9°C 70.0°F21.1°C 95% 1.0 mph NNE1.6 kmh NNE 3.0 mph4.8 kmh 30.15 in1021.0 mb 0.00 in0.0 mm 0.00 in0.0 mm 0.60 in15.2 mm
09:20 PM 71.6°F22.0°C 70.1°F21.2°C 95% Calm Calm 3.0 mph4.8 kmh 30.15 in1021.0 mb 0.00 in0.0 mm 0.00 in0.0 mm 0.60 in15.2 mm
09:25 PM 71.7°F22.1°C 70.2°F21.2°C 95% Calm Calm 2.0 mph3.2 kmh 30.15 in1021.0 mb 0.00 in0.0 mm 0.00 in0.0 mm 0.60 in15.2 mm
09:30 PM 71.6°F22.0°C 70.1°F21.2°C 95% Calm Calm 2.0 mph3.2 kmh 30.15 in1021.0 mb 0.00 in0.0 mm 0.00 in0.0 mm 0.60 in15.2 mm
09:35 PM 71.6°F22.0°C 70.1°F21.2°C 95% Calm Calm 1.0 mph1.6 kmh 30.15 in1021.0 mb 0.00 in0.0 mm 0.00 in0.0 mm 0.60 in15.2 mm
09:40 PM 71.5°F21.9°C 69.7°F20.9°C 94% Calm Calm 1.0 mph1.6 kmh 30.16 in1021.3 mb 0.00 in0.0 mm 0.00 in0.0 mm 0.60 in15.2 mm
09:45 PM 71.4°F21.9°C 69.6°F20.9°C 94% Calm Calm 2.0 mph3.2 kmh 30.16 in1021.3 mb 0.00 in0.0 mm 0.00 in0.0 mm 0.60 in15.2 mm
09:50 PM 71.5°F21.9°C 69.7°F20.9°C 94% Calm Calm 3.0 mph4.8 kmh 30.16 in1021.3 mb 0.00 in0.0 mm 0.00 in0.0 mm 0.60 in15.2 mm
09:55 PM 71.4°F21.9°C 69.6°F20.9°C 94% Calm Calm 3.0 mph4.8 kmh 30.16 in1021.3 mb 0.00 in0.0 mm 0.00 in0.0 mm 0.60 in15.2 mm
10:00 PM 71.3°F21.8°C 69.5°F20.8°C 94% Calm Calm 2.0 mph3.2 kmh 30.16 in1021.3 mb 0.00 in0.0 mm 0.00 in0.0 mm 0.60 in15.2 mm
10:05 PM 71.5°F21.9°C 70.0°F21.1°C 95% 1.0 mph NNE1.6 kmh NNE 3.0 mph4.8 kmh 30.16 in1021.3 mb 0.00 in0.0 mm 0.00 in0.0 mm 0.60 in15.2 mm
10:10 PM 71.5°F21.9°C 70.0°F21.1°C 95% 1.0 mph NNE1.6 kmh NNE 3.0 mph4.8 kmh 30.16 in1021.3 mb 0.00 in0.0 mm 0.00 in0.0 mm 0.60 in15.2 mm
10:15 PM 71.6°F22.0°C 70.1°F21.2°C 95% 1.0 mph NNE1.6 kmh NNE 3.0 mph4.8 kmh 30.16 in1021.3 mb 0.00 in0.0 mm 0.00 in0.0 mm 0.60 in15.2 mm
10:20 PM 71.5°F21.9°C 70.0°F21.1°C 95% Calm Calm 1.0 mph1.6 kmh 30.15 in1021.0 mb 0.00 in0.0 mm 0.00 in0.0 mm 0.60 in15.2 mm
10:25 PM 71.4°F21.9°C 69.6°F20.9°C 94% Calm Calm 1.0 mph1.6 kmh 30.15 in1021.0 mb 0.00 in0.0 mm 0.00 in0.0 mm 0.60 in15.2 mm
10:30 PM 71.4°F21.9°C 69.6°F20.9°C 94% Calm Calm 1.0 mph1.6 kmh 30.15 in1021.0 mb 0.00 in0.0 mm 0.00 in0.0 mm 0.60 in15.2 mm
10:35 PM 71.3°F21.8°C 69.5°F20.8°C 94% Calm Calm 2.0 mph3.2 kmh 30.15 in1021.0 mb 0.00 in0.0 mm 0.00 in0.0 mm 0.60 in15.2 mm
10:40 PM 71.3°F21.8°C 69.5°F20.8°C 94% Calm Calm 2.0 mph3.2 kmh 30.15 in1021.0 mb 0.00 in0.0 mm 0.00 in0.0 mm 0.60 in15.2 mm
10:45 PM 71.3°F21.8°C 69.5°F20.8°C 94% Calm Calm -- 30.15 in1021.0 mb 0.00 in0.0 mm 0.00 in0.0 mm 0.60 in15.2 mm
10:50 PM 71.1°F21.7°C 69.3°F20.7°C 94% Calm Calm 1.0 mph1.6 kmh 30.15 in1021.0 mb 0.00 in0.0 mm 0.00 in0.0 mm 0.60 in15.2 mm
10:55 PM 71.0°F21.7°C 69.2°F20.7°C 94% Calm Calm 1.0 mph1.6 kmh 30.15 in1021.0 mb 0.00 in0.0 mm 0.00 in0.0 mm 0.60 in15.2 mm
11:00 PM 70.9°F21.6°C 69.1°F20.6°C 94% Calm Calm 1.0 mph1.6 kmh 30.15 in1021.0 mb 0.00 in0.0 mm 0.00 in0.0 mm 0.60 in15.2 mm
11:05 PM 70.8°F21.6°C 69.0°F20.6°C 94% Calm Calm 1.0 mph1.6 kmh 30.15 in1021.0 mb 0.00 in0.0 mm 0.00 in0.0 mm 0.60 in15.2 mm
11:10 PM 70.7°F21.5°C 68.9°F20.5°C 94% Calm Calm 1.0 mph1.6 kmh 30.14 in1020.7 mb 0.00 in0.0 mm 0.00 in0.0 mm 0.60 in15.2 mm
11:15 PM 70.6°F21.4°C 68.8°F20.4°C 94% Calm Calm 1.0 mph1.6 kmh 30.14 in1020.7 mb 0.00 in0.0 mm 0.00 in0.0 mm 0.60 in15.2 mm
11:20 PM 70.6°F21.4°C 68.8°F20.4°C 94% Calm Calm 2.0 mph3.2 kmh 30.14 in1020.7 mb 0.00 in0.0 mm 0.00 in0.0 mm 0.60 in15.2 mm
11:25 PM 70.6°F21.4°C 68.8°F20.4°C 94% Calm Calm 2.0 mph3.2 kmh 30.14 in1020.7 mb 0.00 in0.0 mm 0.00 in0.0 mm 0.60 in15.2 mm
11:30 PM 70.6°F21.4°C 69.1°F20.6°C 95% Calm Calm 1.0 mph1.6 kmh 30.14 in1020.7 mb 0.00 in0.0 mm 0.00 in0.0 mm 0.60 in15.2 mm
11:35 PM 70.5°F21.4°C 69.0°F20.6°C 95% Calm Calm 1.0 mph1.6 kmh 30.14 in1020.7 mb 0.00 in0.0 mm 0.00 in0.0 mm 0.60 in15.2 mm
11:40 PM 70.4°F21.3°C 68.9°F20.5°C 95% Calm Calm 1.0 mph1.6 kmh 30.14 in1020.7 mb 0.00 in0.0 mm 0.00 in0.0 mm 0.60 in15.2 mm
11:45 PM 70.3°F21.3°C 68.8°F20.4°C 95% Calm Calm 1.0 mph1.6 kmh 30.14 in1020.7 mb 0.00 in0.0 mm 0.00 in0.0 mm 0.60 in15.2 mm
11:50 PM 70.3°F21.3°C 68.8°F20.4°C 95% Calm Calm 1.0 mph1.6 kmh 30.14 in1020.7 mb 0.00 in0.0 mm 0.00 in0.0 mm 0.60 in15.2 mm
11:55 PM 70.3°F21.3°C 68.8°F20.4°C 95% Calm Calm 1.0 mph1.6 kmh 30.14 in1020.7 mb 0.00 in0.0 mm 0.00 in0.0 mm 0.60 in15.2 mm